createdAt,value
2023-03-19T00:01:34.246Z,12.90
2023-03-19T00:03:54.816Z,13.60
2023-03-19T00:06:14.735Z,11.77
2023-03-19T00:08:35.060Z,11.93
2023-03-19T00:10:54.945Z,11.93
2023-03-19T00:13:15.475Z,12.02
2023-03-19T00:15:36.438Z,11.10
2023-03-19T00:17:56.915Z,15.95
2023-03-19T00:20:17.532Z,20.42
2023-03-19T00:22:37.467Z,19.15
2023-03-19T00:24:57.321Z,9.45
2023-03-19T00:27:17.346Z,7.68
2023-03-19T00:29:37.538Z,7.93
2023-03-19T00:31:57.607Z,7.40
2023-03-19T00:34:18.259Z,7.68
2023-03-19T00:36:38.297Z,7.85
2023-03-19T00:38:58.504Z,6.22
2023-03-19T00:41:19.965Z,8.00
2023-03-19T00:43:41.447Z,7.55
2023-03-19T00:46:02.228Z,7.25
2023-03-19T00:48:22.587Z,7.15
2023-03-19T00:50:42.638Z,10.65
2023-03-19T00:53:02.873Z,8.40
2023-03-19T00:55:24.880Z,10.77
2023-03-19T00:57:45.390Z,11.75
2023-03-19T01:00:06.027Z,11.75
2023-03-19T01:02:26.402Z,12.52
2023-03-19T01:04:48.620Z,12.43
2023-03-19T01:07:08.695Z,12.30
2023-03-19T01:09:29.007Z,11.82
2023-03-19T01:11:49.003Z,10.43
2023-03-19T01:14:09.379Z,11.35
2023-03-19T01:16:29.776Z,10.45
2023-03-19T01:18:50.315Z,10.93
2023-03-19T01:21:10.747Z,10.90
2023-03-19T01:23:31.321Z,11.75
2023-03-19T01:25:51.503Z,11.30
2023-03-19T01:28:11.621Z,11.82
2023-03-19T01:30:31.742Z,10.90
2023-03-19T01:32:52.466Z,10.38
2023-03-19T01:35:12.607Z,9.85
2023-03-19T01:37:33.052Z,10.13
2023-03-19T01:39:53.301Z,9.70
2023-03-19T01:42:13.477Z,9.20
2023-03-19T01:44:35.566Z,10.63
2023-03-19T01:46:57.650Z,11.00
2023-03-19T01:49:18.840Z,11.55
2023-03-19T01:51:41.373Z,11.55
2023-03-19T01:54:04.033Z,12.02
2023-03-19T01:56:27.796Z,11.48
2023-03-19T01:58:50.003Z,8.68
2023-03-19T02:01:10.596Z,9.80
2023-03-19T02:03:31.022Z,9.65
2023-03-19T02:05:51.802Z,9.52
2023-03-19T02:08:13.870Z,9.48
2023-03-19T02:10:35.221Z,10.17
2023-03-19T02:12:55.896Z,10.07
2023-03-19T02:15:16.351Z,9.13
2023-03-19T02:17:36.985Z,9.25
2023-03-19T02:20:15.858Z,9.60
2023-03-19T02:22:36.912Z,9.27
2023-03-19T02:25:00.976Z,9.73
2023-03-19T02:27:21.202Z,9.25
2023-03-19T02:29:41.333Z,8.02
2023-03-19T02:32:03.004Z,8.43
2023-03-19T02:34:23.067Z,8.02
2023-03-19T02:36:45.032Z,8.25
2023-03-19T02:39:08.020Z,8.45
2023-03-19T02:43:49.465Z,9.95
2023-03-19T02:46:13.367Z,8.05
2023-03-19T02:48:34.257Z,7.43
2023-03-19T02:50:55.375Z,8.10
2023-03-19T02:53:15.564Z,9.93
2023-03-19T02:55:36.047Z,9.00
2023-03-19T02:57:56.647Z,9.52
2023-03-19T03:00:18.140Z,9.63
2023-03-19T03:02:38.148Z,9.10
2023-03-19T03:04:58.698Z,9.50
2023-03-19T03:07:18.938Z,10.85
2023-03-19T03:09:39.180Z,9.07
2023-03-19T03:11:59.432Z,9.07
2023-03-19T03:14:19.709Z,9.75
2023-03-19T03:16:40.008Z,9.85
2023-03-19T03:19:01.857Z,8.82
2023-03-19T03:21:22.291Z,8.90
2023-03-19T03:23:42.316Z,9.80
2023-03-19T03:26:02.589Z,10.65
2023-03-19T03:28:23.927Z,12.57
2023-03-19T03:30:44.212Z,11.38
2023-03-19T03:33:04.458Z,12.15
2023-03-19T03:35:24.884Z,8.52
2023-03-19T03:37:47.306Z,9.63
2023-03-19T03:40:08.509Z,7.68
2023-03-19T03:42:28.922Z,8.93
2023-03-19T03:44:49.218Z,8.07
2023-03-19T03:47:09.420Z,8.90
2023-03-19T03:49:29.710Z,10.63
2023-03-19T03:51:49.905Z,8.65
2023-03-19T03:54:10.256Z,7.47
2023-03-19T03:56:30.834Z,7.75
2023-03-19T03:58:50.797Z,8.60
2023-03-19T04:01:15.574Z,7.60
2023-03-19T04:03:35.807Z,7.20
2023-03-19T04:05:56.598Z,7.43
2023-03-19T04:08:16.741Z,7.75
2023-03-19T04:10:39.508Z,9.90
2023-03-19T04:12:59.602Z,9.40
2023-03-19T04:15:19.849Z,10.27
2023-03-19T04:17:39.789Z,8.48
2023-03-19T04:19:59.980Z,9.93
2023-03-19T04:22:20.137Z,9.18
2023-03-19T04:24:40.838Z,7.97
2023-03-19T04:27:01.028Z,10.80
2023-03-19T04:29:21.901Z,11.25
2023-03-19T04:31:41.935Z,10.52
2023-03-19T04:34:02.134Z,11.15
2023-03-19T04:36:22.178Z,10.00
2023-03-19T04:38:42.642Z,9.75
2023-03-19T04:41:03.621Z,9.40
2023-03-19T04:43:24.601Z,10.95
2023-03-19T04:45:45.560Z,10.75
2023-03-19T04:48:06.314Z,8.63
2023-03-19T04:50:27.272Z,8.88
2023-03-19T04:52:47.318Z,8.50
2023-03-19T04:55:07.947Z,9.73
2023-03-19T04:57:28.185Z,10.18
2023-03-19T04:59:48.443Z,9.57
2023-03-19T05:02:08.819Z,9.40
2023-03-19T05:04:29.024Z,9.77
2023-03-19T05:06:49.793Z,9.70
2023-03-19T05:09:10.186Z,9.77
2023-03-19T05:11:30.540Z,8.40
2023-03-19T05:13:50.759Z,8.75
2023-03-19T05:16:10.905Z,8.63
2023-03-19T05:18:30.933Z,10.02
2023-03-19T05:20:51.186Z,9.70
2023-03-19T05:23:11.649Z,8.35
2023-03-19T05:25:32.296Z,8.90
2023-03-19T05:27:53.039Z,9.15
2023-03-19T05:30:13.551Z,8.43
2023-03-19T05:32:33.914Z,8.90
2023-03-19T05:34:54.419Z,8.98
2023-03-19T05:37:14.895Z,8.98
2023-03-19T05:39:35.720Z,8.02
2023-03-19T05:41:56.230Z,8.77
2023-03-19T05:44:16.777Z,7.75
2023-03-19T05:46:37.151Z,6.38
2023-03-19T05:48:57.427Z,8.35
2023-03-19T05:51:17.613Z,8.00
2023-03-19T05:53:38.030Z,8.43
2023-03-19T05:55:58.098Z,8.73
2023-03-19T05:58:18.342Z,8.13
2023-03-19T06:00:38.802Z,9.43
2023-03-19T06:02:58.770Z,8.73
2023-03-19T06:05:19.075Z,8.68
2023-03-19T06:07:39.145Z,8.65
2023-03-19T06:09:59.231Z,9.57
2023-03-19T06:12:19.945Z,8.13
2023-03-19T06:14:40.058Z,9.07
2023-03-19T06:17:00.302Z,8.43
2023-03-19T06:19:20.444Z,8.63
2023-03-19T06:21:40.358Z,8.57
2023-03-19T06:24:00.427Z,8.55
2023-03-19T06:26:20.517Z,7.68
2023-03-19T06:28:40.466Z,7.80
2023-03-19T06:31:00.411Z,8.85
2023-03-19T06:33:20.639Z,8.40
2023-03-19T06:35:41.043Z,7.15
2023-03-19T06:38:01.209Z,6.88
2023-03-19T06:40:21.362Z,7.82
2023-03-19T06:42:44.759Z,6.80
2023-03-19T06:47:26.388Z,7.05
2023-03-19T06:49:46.647Z,6.35
2023-03-19T06:52:06.657Z,6.50
2023-03-19T06:54:26.806Z,6.05
2023-03-19T06:56:48.354Z,6.47
2023-03-19T06:59:12.414Z,10.07
2023-03-19T07:01:32.749Z,10.07
2023-03-19T07:03:53.543Z,9.50
2023-03-19T07:06:13.946Z,9.00
2023-03-19T07:08:34.007Z,8.82
2023-03-19T07:10:54.113Z,9.75
2023-03-19T07:13:14.441Z,11.43
2023-03-19T07:15:35.592Z,29.40
2023-03-19T07:17:56.656Z,12.18
2023-03-19T07:20:17.007Z,11.55
2023-03-19T07:22:37.423Z,14.52
2023-03-19T07:24:57.669Z,11.98
2023-03-19T07:27:17.769Z,12.57
2023-03-19T07:29:37.883Z,10.57
2023-03-19T07:31:58.054Z,10.02
2023-03-19T07:34:18.235Z,9.20
2023-03-19T07:36:38.199Z,11.05
2023-03-19T07:38:58.385Z,13.10
2023-03-19T07:41:18.460Z,12.05
2023-03-19T07:43:38.691Z,11.93
2023-03-19T07:45:59.275Z,13.50
2023-03-19T07:48:19.354Z,13.18
2023-03-19T07:50:39.380Z,12.50
2023-03-19T07:52:59.698Z,11.93
2023-03-19T07:55:20.538Z,13.18
2023-03-19T07:57:40.552Z,12.73
2023-03-19T08:00:00.845Z,22.58
2023-03-19T08:02:23.256Z,15.48
2023-03-19T08:04:43.820Z,12.38
2023-03-19T08:07:04.046Z,14.02
2023-03-19T08:09:23.954Z,11.80
2023-03-19T08:11:44.241Z,10.73
2023-03-19T08:14:04.405Z,10.68
2023-03-19T08:16:24.957Z,10.82
2023-03-19T08:18:45.432Z,11.75
2023-03-19T08:21:06.179Z,11.73
2023-03-19T08:23:26.477Z,10.15
2023-03-19T08:25:47.043Z,10.55
2023-03-19T08:28:09.088Z,12.00
2023-03-19T08:30:29.269Z,12.38
2023-03-19T08:32:49.872Z,12.13
2023-03-19T08:35:10.702Z,10.88
2023-03-19T08:37:31.047Z,11.45
2023-03-19T08:39:51.595Z,11.50
2023-03-19T08:42:12.209Z,11.75
2023-03-19T08:44:32.270Z,10.30
2023-03-19T08:46:52.540Z,8.77
2023-03-19T08:49:12.992Z,8.98
2023-03-19T08:51:32.982Z,8.13
2023-03-19T08:53:53.280Z,9.68
2023-03-19T08:56:13.534Z,7.47
2023-03-19T08:58:34.216Z,7.63
2023-03-19T09:01:01.584Z,7.13
2023-03-19T09:03:21.822Z,11.85
2023-03-19T09:05:42.043Z,13.00
2023-03-19T09:08:02.297Z,8.50
2023-03-19T09:10:22.805Z,6.30
2023-03-19T09:12:43.051Z,7.57
2023-03-19T09:15:03.838Z,7.10
2023-03-19T09:17:23.878Z,6.68
2023-03-19T09:19:44.111Z,6.28
2023-03-19T09:22:04.280Z,5.55
2023-03-19T09:24:25.517Z,6.30
2023-03-19T09:26:46.473Z,6.45
2023-03-19T09:29:06.509Z,5.90
2023-03-19T09:31:29.545Z,5.88
2023-03-19T09:36:10.255Z,9.15
2023-03-19T09:38:30.616Z,6.55
2023-03-19T09:40:59.891Z,6.72
2023-03-19T09:43:38.936Z,6.32
2023-03-19T09:45:59.766Z,6.50
2023-03-19T09:48:28.217Z,7.03
2023-03-19T09:50:49.956Z,6.05
2023-03-19T09:53:13.051Z,6.75
2023-03-19T09:55:33.366Z,7.15
2023-03-19T09:57:54.901Z,5.25
2023-03-19T10:00:28.866Z,6.55
2023-03-19T10:02:52.980Z,5.63
2023-03-19T10:05:19.821Z,5.88
2023-03-19T10:07:39.956Z,5.13
2023-03-19T10:10:15.635Z,6.47
2023-03-19T10:12:58.946Z,6.28
2023-03-19T10:15:26.759Z,6.38
2023-03-19T10:17:46.850Z,6.05
2023-03-19T10:20:25.756Z,6.15
2023-03-19T10:22:49.870Z,6.35
2023-03-19T10:25:15.955Z,6.22
2023-03-19T10:27:37.583Z,6.15
2023-03-19T10:29:58.101Z,5.55
2023-03-19T10:32:19.939Z,5.90
2023-03-19T10:34:43.960Z,5.90
2023-03-19T10:37:05.884Z,6.15
2023-03-19T10:39:26.658Z,5.82
2023-03-19T10:41:53.506Z,5.30
2023-03-19T10:44:32.544Z,6.40
2023-03-19T10:46:52.748Z,6.30
2023-03-19T10:49:13.764Z,7.00
2023-03-19T10:51:37.868Z,9.27
2023-03-19T10:54:00.481Z,6.38
2023-03-19T10:56:22.299Z,6.95
2023-03-19T10:58:55.790Z,7.40
2023-03-19T11:01:16.236Z,8.38
2023-03-19T11:03:37.668Z,5.22
2023-03-19T11:06:17.777Z,7.50
2023-03-19T11:08:38.246Z,8.30
2023-03-19T11:10:58.439Z,9.27
2023-03-19T11:13:27.739Z,6.63
2023-03-19T11:15:48.672Z,7.00
2023-03-19T11:18:16.336Z,6.43
2023-03-19T11:20:38.150Z,6.82
2023-03-19T11:23:01.969Z,6.82
2023-03-19T11:25:36.812Z,6.82
2023-03-19T11:28:00.623Z,5.68
2023-03-19T11:30:21.098Z,6.20
2023-03-19T11:33:13.805Z,5.18
2023-03-19T11:35:39.854Z,8.20
2023-03-19T11:38:01.754Z,6.38
2023-03-19T11:40:41.198Z,6.65
2023-03-19T11:43:10.274Z,6.18
2023-03-19T11:45:39.853Z,6.60
2023-03-19T11:48:20.424Z,7.38
2023-03-19T11:50:40.719Z,7.85
2023-03-19T11:53:12.804Z,7.47
2023-03-19T11:55:39.689Z,6.50
2023-03-19T11:58:05.717Z,5.72
2023-03-19T12:00:30.543Z,6.60
2023-03-19T12:03:09.245Z,7.35
2023-03-19T12:05:34.133Z,6.75
2023-03-19T12:07:54.303Z,10.43
2023-03-19T12:10:20.844Z,6.63
2023-03-19T12:12:49.927Z,6.35
2023-03-19T12:15:10.127Z,5.35
2023-03-19T12:17:45.769Z,5.35
2023-03-19T12:20:15.436Z,6.55
2023-03-19T12:22:53.875Z,6.38
2023-03-19T12:25:16.945Z,6.13
2023-03-19T12:27:43.014Z,6.95
2023-03-19T12:30:24.784Z,6.05
2023-03-19T12:33:06.699Z,7.15
2023-03-19T12:35:49.154Z,7.85
2023-03-19T12:38:12.259Z,7.13
2023-03-19T12:42:53.860Z,11.18
2023-03-19T12:45:26.810Z,7.50
2023-03-19T12:50:09.667Z,5.57
2023-03-19T12:52:43.951Z,7.68
2023-03-19T12:55:20.309Z,5.40
2023-03-19T12:58:01.535Z,6.32
2023-03-19T13:00:21.809Z,7.43
2023-03-19T13:02:53.354Z,5.80
2023-03-19T13:05:26.655Z,6.30
2023-03-19T13:07:56.387Z,4.30
2023-03-19T13:10:20.899Z,4.90
2023-03-19T13:12:41.651Z,4.97
2023-03-19T13:15:09.825Z,4.32
2023-03-19T13:17:40.904Z,4.63
2023-03-19T13:20:06.103Z,4.93
2023-03-19T13:22:33.279Z,4.90
2023-03-19T13:24:55.272Z,4.82
2023-03-19T13:27:20.040Z,5.93
2023-03-19T13:30:03.338Z,6.65
2023-03-19T13:32:25.039Z,6.97
2023-03-19T13:34:45.116Z,7.05
2023-03-19T13:37:11.298Z,6.22
2023-03-19T13:39:33.426Z,5.35
2023-03-19T13:41:57.472Z,8.20
2023-03-19T13:44:33.295Z,11.82
2023-03-19T13:46:53.514Z,5.63
2023-03-19T13:49:13.989Z,5.85
2023-03-19T13:51:35.100Z,4.05
2023-03-19T13:53:56.092Z,4.75
2023-03-19T13:56:28.963Z,5.20
2023-03-19T13:58:52.183Z,8.40
2023-03-19T14:01:32.840Z,10.93
2023-03-19T14:03:53.945Z,5.15
2023-03-19T14:06:37.599Z,6.10
2023-03-19T14:08:58.474Z,5.80
2023-03-19T14:11:25.659Z,6.63
2023-03-19T14:13:49.056Z,5.70
2023-03-19T14:16:25.988Z,8.65
2023-03-19T14:18:47.207Z,7.65
2023-03-19T14:21:12.877Z,7.22
2023-03-19T14:23:42.005Z,8.50
2023-03-19T14:26:12.204Z,8.90
2023-03-19T14:28:38.465Z,10.88
2023-03-19T14:30:58.889Z,11.13
2023-03-19T14:33:31.546Z,12.40
2023-03-19T14:35:51.792Z,12.38
2023-03-19T14:38:15.054Z,12.63
2023-03-19T14:40:43.131Z,13.63
2023-03-19T14:43:11.435Z,14.70
2023-03-19T14:45:38.638Z,14.38
2023-03-19T14:48:17.642Z,14.30
2023-03-19T14:50:48.171Z,14.18
2023-03-19T14:53:14.732Z,14.57
2023-03-19T14:55:37.331Z,12.32
2023-03-19T14:58:00.529Z,16.60
2023-03-19T15:00:20.741Z,16.98
2023-03-19T15:02:46.458Z,15.15
2023-03-19T15:05:13.741Z,14.70
2023-03-19T15:07:37.990Z,13.15
2023-03-19T15:09:59.536Z,11.63
2023-03-19T15:12:42.767Z,14.10
2023-03-19T15:15:12.298Z,13.85
2023-03-19T15:17:32.795Z,12.32
2023-03-19T15:19:54.282Z,13.93
2023-03-19T15:22:22.098Z,12.75
2023-03-19T15:24:42.996Z,10.52
2023-03-19T15:27:03.079Z,11.95
2023-03-19T15:29:33.301Z,11.85
2023-03-19T15:32:03.792Z,14.32
2023-03-19T15:34:28.879Z,11.85
2023-03-19T15:36:59.242Z,13.25
2023-03-19T15:39:19.829Z,15.77
2023-03-19T15:41:44.023Z,15.85
2023-03-19T15:44:06.485Z,13.48
2023-03-19T15:46:29.593Z,14.98
2023-03-19T15:48:49.897Z,14.20
2023-03-19T15:51:10.725Z,13.45
2023-03-19T15:53:32.734Z,12.40
2023-03-19T15:55:54.181Z,11.75
2023-03-19T15:58:22.624Z,10.50
2023-03-19T16:00:43.451Z,10.18
2023-03-19T16:03:06.307Z,11.90
2023-03-19T16:05:27.414Z,11.98
2023-03-19T16:07:53.856Z,13.45
2023-03-19T16:10:31.805Z,11.88
2023-03-19T16:12:52.197Z,11.02
2023-03-19T16:15:38.905Z,11.82
2023-03-19T16:18:17.416Z,11.85
2023-03-19T16:20:55.549Z,13.85
2023-03-19T16:23:17.349Z,10.75
2023-03-19T16:25:39.561Z,10.88
2023-03-19T16:28:00.126Z,14.98
2023-03-19T16:30:21.844Z,12.93
2023-03-19T16:32:41.904Z,15.05
2023-03-19T16:35:06.572Z,15.77
2023-03-19T16:37:42.110Z,16.90
2023-03-19T16:40:23.077Z,13.43
2023-03-19T16:42:44.554Z,10.93
2023-03-19T16:45:17.464Z,12.07
2023-03-19T16:47:37.831Z,12.80
2023-03-19T16:49:58.014Z,12.02
2023-03-19T16:52:22.839Z,14.75
2023-03-19T16:54:43.264Z,14.43
2023-03-19T16:57:03.641Z,13.05
2023-03-19T16:59:28.080Z,12.10
2023-03-19T17:01:48.188Z,11.85
2023-03-19T17:04:12.483Z,13.13
2023-03-19T17:06:33.812Z,12.68
2023-03-19T17:08:53.991Z,12.82
2023-03-19T17:11:28.354Z,13.50
2023-03-19T17:13:48.477Z,15.25
2023-03-19T17:16:09.002Z,12.90
2023-03-19T17:18:31.653Z,13.38
2023-03-19T17:20:57.289Z,12.13
2023-03-19T17:23:17.552Z,13.52
2023-03-19T17:25:38.282Z,10.82
2023-03-19T17:27:58.630Z,11.77
2023-03-19T17:30:19.107Z,11.98
2023-03-19T17:32:41.639Z,13.32
2023-03-19T17:35:02.375Z,11.73
2023-03-19T17:37:22.551Z,13.85
2023-03-19T17:39:45.004Z,11.90
2023-03-19T17:42:17.544Z,11.82
2023-03-19T17:44:38.308Z,12.55
2023-03-19T17:46:58.691Z,12.88
2023-03-19T17:49:21.925Z,14.45
2023-03-19T17:51:41.978Z,18.20
2023-03-19T17:54:02.185Z,14.25
2023-03-19T17:56:26.863Z,14.77
2023-03-19T17:58:49.812Z,12.63
2023-03-19T18:01:13.260Z,14.60
2023-03-19T18:05:54.886Z,14.10
2023-03-19T18:08:16.640Z,15.43
2023-03-19T18:10:37.341Z,13.05
2023-03-19T18:12:59.571Z,13.93
2023-03-19T18:15:20.900Z,13.68
2023-03-19T18:17:51.732Z,17.08
2023-03-19T18:20:16.809Z,15.18
2023-03-19T18:22:37.081Z,15.73
2023-03-19T18:24:57.428Z,17.38
2023-03-19T18:27:17.555Z,20.30
2023-03-19T18:29:38.421Z,19.60
2023-03-19T18:32:07.738Z,18.90
2023-03-19T18:34:27.889Z,21.00
2023-03-19T18:36:48.074Z,16.45
2023-03-19T18:39:15.439Z,16.65
2023-03-19T18:41:35.562Z,14.57
2023-03-19T18:43:55.849Z,14.70
2023-03-19T18:46:20.367Z,12.10
2023-03-19T18:48:40.962Z,11.52
2023-03-19T18:51:01.309Z,12.85
2023-03-19T18:53:21.931Z,13.68
2023-03-19T18:55:42.374Z,13.77
2023-03-19T18:58:03.039Z,14.18
2023-03-19T19:00:28.225Z,13.13
2023-03-19T19:02:49.383Z,12.38
2023-03-19T19:05:13.983Z,14.75
2023-03-19T19:07:34.321Z,13.45
2023-03-19T19:09:54.531Z,14.32
2023-03-19T19:12:18.438Z,14.20
2023-03-19T19:14:38.919Z,13.23
2023-03-19T19:16:59.647Z,12.80
2023-03-19T19:19:22.360Z,12.65
2023-03-19T19:21:42.449Z,12.23
2023-03-19T19:24:02.713Z,11.45
2023-03-19T19:26:25.010Z,10.88
2023-03-19T19:28:45.152Z,9.70
2023-03-19T19:31:05.669Z,12.43
2023-03-19T19:33:32.501Z,10.15
2023-03-19T19:35:52.834Z,13.25
2023-03-19T19:38:13.262Z,19.65
2023-03-19T19:40:33.562Z,24.23
2023-03-19T19:42:54.076Z,17.27
2023-03-19T19:45:33.457Z,16.10
2023-03-19T19:47:53.740Z,13.25
2023-03-19T19:50:17.921Z,13.00
2023-03-19T19:52:38.136Z,12.80
2023-03-19T19:54:58.511Z,14.13
2023-03-19T19:57:23.988Z,14.07
2023-03-19T19:59:45.386Z,17.52
2023-03-19T20:02:18.449Z,19.42
2023-03-19T20:04:38.862Z,19.75
2023-03-19T20:06:59.071Z,18.60
2023-03-19T20:09:19.274Z,17.08
2023-03-19T20:11:39.436Z,15.65
2023-03-19T20:13:59.685Z,13.77
2023-03-19T20:16:21.333Z,12.18
2023-03-19T20:18:42.861Z,13.05
2023-03-19T20:21:03.602Z,14.80
2023-03-19T20:23:23.968Z,11.32
2023-03-19T20:25:45.473Z,10.40
2023-03-19T20:28:07.896Z,10.30
2023-03-19T20:30:29.112Z,10.77
2023-03-19T20:32:50.278Z,10.88
2023-03-19T20:35:18.740Z,10.32
2023-03-19T20:37:38.832Z,10.57
2023-03-19T20:39:59.086Z,10.52
2023-03-19T20:42:19.553Z,11.30
2023-03-19T20:44:39.918Z,15.02
2023-03-19T20:46:59.914Z,15.25
2023-03-19T20:49:19.931Z,15.47
2023-03-19T20:51:40.359Z,13.50
2023-03-19T20:54:00.653Z,18.58
2023-03-19T20:56:23.680Z,15.45
2023-03-19T21:01:03.803Z,14.10
2023-03-19T21:03:25.130Z,15.13
2023-03-19T21:05:45.648Z,15.20
2023-03-19T21:08:06.687Z,13.50
2023-03-19T21:10:32.747Z,14.68
2023-03-19T21:12:52.910Z,14.40
2023-03-19T21:15:13.897Z,14.70
2023-03-19T21:17:34.265Z,13.57
2023-03-19T21:19:55.035Z,18.48
2023-03-19T21:22:21.377Z,17.45
2023-03-19T21:24:41.647Z,19.38
2023-03-19T21:27:03.956Z,14.13
2023-03-19T21:29:29.188Z,15.80
2023-03-19T21:31:49.415Z,15.75
2023-03-19T21:34:12.502Z,14.82
2023-03-19T21:36:33.019Z,14.98
2023-03-19T21:38:53.426Z,18.98
2023-03-19T21:41:24.200Z,31.85
2023-03-19T21:43:49.176Z,29.80
2023-03-19T21:46:23.788Z,40.47
2023-03-19T21:48:45.523Z,30.08
2023-03-19T21:51:06.208Z,30.85
2023-03-19T21:53:26.394Z,30.85
2023-03-19T21:55:46.554Z,41.75
2023-03-19T21:58:10.203Z,31.17
2023-03-19T22:00:31.067Z,32.35
2023-03-19T22:02:51.724Z,27.95
2023-03-19T22:05:18.160Z,29.65
2023-03-19T22:07:38.259Z,26.70
2023-03-19T22:09:58.658Z,22.30
2023-03-19T22:12:25.304Z,25.02
2023-03-19T22:14:45.550Z,23.85
2023-03-19T22:17:05.971Z,25.73
2023-03-19T22:19:25.949Z,25.38
2023-03-19T22:21:46.491Z,24.45
2023-03-19T22:24:06.549Z,25.17
2023-03-19T22:26:29.019Z,33.25
2023-03-19T22:28:49.287Z,32.65
2023-03-19T22:31:09.398Z,30.98
2023-03-19T22:33:29.673Z,38.80
2023-03-19T22:35:50.144Z,44.97
2023-03-19T22:38:10.494Z,51.60
2023-03-19T22:40:30.423Z,61.28
2023-03-19T22:42:50.511Z,67.22
2023-03-19T22:45:14.876Z,55.60
2023-03-19T22:47:38.271Z,39.67
2023-03-19T22:52:19.161Z,27.30
2023-03-19T22:54:40.237Z,28.08
2023-03-19T22:57:00.518Z,25.10
2023-03-19T22:59:20.980Z,20.08
2023-03-19T23:01:43.535Z,23.88
2023-03-19T23:04:23.022Z,21.98
2023-03-19T23:06:43.266Z,18.70
2023-03-19T23:09:03.917Z,14.15
2023-03-19T23:11:24.586Z,14.93
2023-03-19T23:13:45.247Z,14.27
2023-03-19T23:16:20.539Z,14.10
2023-03-19T23:18:40.726Z,12.82
2023-03-19T23:21:01.213Z,13.15
2023-03-19T23:23:21.435Z,10.13
2023-03-19T23:25:42.561Z,8.57
2023-03-19T23:28:03.106Z,11.75
2023-03-19T23:30:29.041Z,9.77
2023-03-19T23:32:49.269Z,7.95
2023-03-19T23:35:20.594Z,7.30
2023-03-19T23:37:41.563Z,5.72
2023-03-19T23:40:01.674Z,4.43
2023-03-19T23:42:30.719Z,6.10
2023-03-19T23:44:51.877Z,5.68
2023-03-19T23:47:12.076Z,5.40
2023-03-19T23:49:32.886Z,5.30
2023-03-19T23:51:52.836Z,5.47
2023-03-19T23:54:32.854Z,5.78
2023-03-19T23:56:52.946Z,7.78
2023-03-19T23:59:13.449Z,7.45
